Time;durP1;ratioP1;P1;durP2;ratioP2;P2;SDS_P1;SDS_P2;PMS_P1;PMS_P2;Temp;Humidity;BMP_temperature;BMP_pressure;BME280_temperature;BME280_humidity;BME280_pressure;Samples;Min_cycle;Max_cycle;Signal;HPM_P1;HPM_P2
2023/09/05 00:01:45;;;;;;;3.35;2.38;;;;;;;;;;5062845;28;41655;-70
2023/09/05 00:04:13;;;;;;;3.17;2.38;;;;;;;;;;5064686;28;41710;-69
2023/09/05 00:06:43;;;;;;;3.25;2.28;;;;;;;;;;5066928;28;40516;-70
2023/09/05 00:09:11;;;;;;;2.30;2.10;;;;;;;;;;5066724;28;41795;-69
2023/09/05 00:11:39;;;;;;;2.15;1.95;;;;;;;;;;5065967;28;40879;-69
2023/09/05 00:14:09;;;;;;;2.42;2.08;;;;;;;;;;5066640;28;40122;-69
2023/09/05 00:16:37;;;;;;;2.35;2.15;;;;;;;;;;5066784;28;41982;-69
2023/09/05 00:19:05;;;;;;;3.10;2.20;;;;;;;;;;5068095;28;41897;-70
2023/09/05 00:21:33;;;;;;;2.72;2.35;;;;;;;;;;5067042;28;41585;-70
2023/09/05 00:24:20;;;;;;;3.38;2.33;;;;;;;;;;5067438;28;42252;-70
2023/09/05 00:26:50;;;;;;;3.20;1.92;;;;;;;;;;5067641;28;39808;-70
2023/09/05 00:29:19;;;;;;;3.00;2.15;;;;;;;;;;5061902;28;40984;-70
2023/09/05 00:31:47;;;;;;;2.47;2.25;;;;;;;;;;5061936;28;40752;-70
2023/09/05 00:34:15;;;;;;;4.55;2.10;;;;;;;;;;5062756;28;40385;-70
2023/09/05 00:36:47;;;;;;;4.20;2.20;;;;;;;;;;5066378;28;41907;-70
2023/09/05 00:39:16;;;;;;;2.25;2.05;;;;;;;;;;5054907;28;41608;-70
2023/09/05 00:41:44;;;;;;;3.03;2.17;;;;;;;;;;5052438;28;41414;-70
2023/09/05 00:44:14;;;;;;;2.55;1.80;;;;;;;;;;5060509;28;42253;-70
2023/09/05 00:46:43;;;;;;;4.65;2.10;;;;;;;;;;5057457;28;39966;-70
2023/09/05 00:49:12;;;;;;;3.67;2.38;;;;;;;;;;5063564;28;42821;-69
2023/09/05 00:51:42;;;;;;;2.97;2.17;;;;;;;;;;5065860;28;42112;-70
2023/09/05 00:54:10;;;;;;;2.53;2.20;;;;;;;;;;5065516;28;38827;-70
2023/09/05 00:56:38;;;;;;;2.28;1.95;;;;;;;;;;5066739;28;42411;-69
2023/09/05 00:59:06;;;;;;;2.72;2.10;;;;;;;;;;5066424;28;40310;-70
2023/09/05 01:01:36;;;;;;;3.40;2.17;;;;;;;;;;5065107;28;41453;-70
2023/09/05 01:04:04;;;;;;;2.53;2.10;;;;;;;;;;5099432;28;40688;-70
2023/09/05 01:06:37;;;;;;;2.30;2.10;;;;;;;;;;5064650;28;40289;-70
2023/09/05 01:09:08;;;;;;;2.25;2.05;;;;;;;;;;5065458;28;40176;-70
2023/09/05 01:11:36;;;;;;;3.10;2.05;;;;;;;;;;5065163;28;41895;-70
2023/09/05 01:14:04;;;;;;;2.47;2.28;;;;;;;;;;5065114;28;39225;-70
2023/09/05 01:16:32;;;;;;;2.30;2.10;;;;;;;;;;5065423;28;40689;-70
2023/09/05 01:19:02;;;;;;;2.13;1.90;;;;;;;;;;5066369;28;42546;-70
2023/09/05 01:21:31;;;;;;;2.83;2.20;;;;;;;;;;5066217;28;41029;-70
2023/09/05 01:24:09;;;;;;;2.70;2.22;;;;;;;;;;5066691;28;43055;-69
2023/09/05 01:26:37;;;;;;;4.93;2.70;;;;;;;;;;5062354;28;41413;-70
2023/09/05 01:29:05;;;;;;;2.47;2.20;;;;;;;;;;5066123;28;41165;-70
2023/09/05 01:31:33;;;;;;;3.35;2.10;;;;;;;;;;5059639;28;42490;-70
2023/09/05 01:34:02;;;;;;;2.47;2.28;;;;;;;;;;5065860;28;39713;-70
2023/09/05 01:36:29;;;;;;;2.47;2.25;;;;;;;;;;5065772;28;41873;-70
2023/09/05 01:38:58;;;;;;;2.65;2.17;;;;;;;;;;5066162;28;43778;-70
2023/09/05 01:41:27;;;;;;;2.30;2.10;;;;;;;;;;5066053;28;41451;-70
2023/09/05 01:43:55;;;;;;;2.30;2.10;;;;;;;;;;5066299;28;41797;-70
2023/09/05 01:46:23;;;;;;;2.92;2.42;;;;;;;;;;5064761;28;40907;-70
2023/09/05 01:48:51;;;;;;;3.72;2.20;;;;;;;;;;5065968;28;42049;-70
2023/09/05 01:51:19;;;;;;;2.80;2.13;;;;;;;;;;5066639;28;42343;-70
2023/09/05 01:53:47;;;;;;;3.15;2.28;;;;;;;;;;5065117;28;40605;-70
2023/09/05 01:56:15;;;;;;;2.55;2.00;;;;;;;;;;5066596;28;41281;-70
2023/09/05 01:58:45;;;;;;;2.13;1.92;;;;;;;;;;5062426;28;40782;-70
2023/09/05 02:01:13;;;;;;;2.65;2.40;;;;;;;;;;5064088;28;39929;-70
2023/09/05 02:03:41;;;;;;;2.83;2.10;;;;;;;;;;5053077;28;42442;-70
2023/09/05 02:06:09;;;;;;;2.33;2.13;;;;;;;;;;5066202;28;39994;-70
2023/09/05 02:08:37;;;;;;;2.03;1.90;;;;;;;;;;5068991;28;42479;-70
2023/09/05 02:11:05;;;;;;;2.72;2.30;;;;;;;;;;5069852;28;42230;-70
2023/09/05 02:13:33;;;;;;;2.78;2.22;;;;;;;;;;5069364;28;40025;-70
2023/09/05 02:16:02;;;;;;;2.45;2.08;;;;;;;;;;5067815;28;40891;-69
2023/09/05 02:18:30;;;;;;;3.03;2.42;;;;;;;;;;5068183;28;40757;-70
2023/09/05 02:21:00;;;;;;;2.50;2.30;;;;;;;;;;5069851;28;39959;-70
2023/09/05 02:23:28;;;;;;;2.60;2.40;;;;;;;;;;5068367;28;41678;-70
2023/09/05 02:25:56;;;;;;;4.30;2.55;;;;;;;;;;5068343;28;40950;-69
2023/09/05 02:28:24;;;;;;;2.42;2.22;;;;;;;;;;5069684;28;42285;-70
2023/09/05 02:30:52;;;;;;;2.25;1.92;;;;;;;;;;5068955;28;42982;-70
2023/09/05 02:33:22;;;;;;;2.90;2.40;;;;;;;;;;5057162;28;38844;-69
2023/09/05 02:35:50;;;;;;;2.20;2.00;;;;;;;;;;5069462;28;41525;-70
2023/09/05 02:38:18;;;;;;;2.80;2.50;;;;;;;;;;5069187;28;42285;-70
2023/09/05 02:40:46;;;;;;;3.80;2.22;;;;;;;;;;5068365;28;40337;-70
2023/09/05 02:43:14;;;;;;;3.80;2.40;;;;;;;;;;5069007;28;41903;-70
2023/09/05 02:45:45;;;;;;;2.63;1.95;;;;;;;;;;5068959;28;42154;-71
2023/09/05 02:48:13;;;;;;;2.50;2.25;;;;;;;;;;5067672;28;41100;-69
2023/09/05 02:50:43;;;;;;;2.38;2.13;;;;;;;;;;5067986;28;41916;-70
2023/09/05 02:53:11;;;;;;;2.40;2.10;;;;;;;;;;5068715;28;41334;-70
2023/09/05 02:55:43;;;;;;;2.78;2.22;;;;;;;;;;5067187;28;39845;-70
2023/09/05 02:58:11;;;;;;;2.95;2.30;;;;;;;;;;5067816;28;43179;-70
2023/09/05 03:00:40;;;;;;;3.25;2.17;;;;;;;;;;5068335;28;40860;-70
2023/09/05 03:03:08;;;;;;;2.42;2.20;;;;;;;;;;5063039;28;41700;-70
2023/09/05 03:05:36;;;;;;;2.58;2.00;;;;;;;;;;5066318;28;42324;-70
2023/09/05 03:08:06;;;;;;;3.00;2.30;;;;;;;;;;5067520;28;39375;-70
2023/09/05 03:10:34;;;;;;;2.70;2.13;;;;;;;;;;5067633;28;43137;-70
2023/09/05 03:13:02;;;;;;;2.10;1.90;;;;;;;;;;5066901;28;40614;-70
2023/09/05 03:15:30;;;;;;;3.33;2.33;;;;;;;;;;5067211;28;40403;-70
2023/09/05 03:17:58;;;;;;;2.40;2.20;;;;;;;;;;5067169;28;40605;-69
2023/09/05 03:20:26;;;;;;;2.25;2.05;;;;;;;;;;5068892;28;39914;-70
2023/09/05 03:22:54;;;;;;;4.18;2.00;;;;;;;;;;5068349;28;41800;-70
2023/09/05 03:25:24;;;;;;;3.40;2.70;;;;;;;;;;5066148;28;40733;-70
2023/09/05 03:27:52;;;;;;;3.58;2.50;;;;;;;;;;5067915;28;39202;-70
2023/09/05 03:30:20;;;;;;;2.33;2.13;;;;;;;;;;5067580;28;40221;-70
2023/09/05 03:32:48;;;;;;;2.72;2.00;;;;;;;;;;5067673;28;41625;-69
2023/09/05 03:35:17;;;;;;;2.40;2.15;;;;;;;;;;5068787;28;42554;-70
2023/09/05 03:37:45;;;;;;;2.35;2.00;;;;;;;;;;5066474;28;42314;-70
2023/09/05 03:40:13;;;;;;;4.15;2.45;;;;;;;;;;5067055;28;39275;-70
2023/09/05 03:42:43;;;;;;;3.33;2.58;;;;;;;;;;5068361;28;41453;-70
2023/09/05 03:45:11;;;;;;;2.33;2.13;;;;;;;;;;5067163;28;40793;-70
2023/09/05 03:47:39;;;;;;;2.53;2.25;;;;;;;;;;5067316;28;40335;-70
2023/09/05 03:50:21;;;;;;;2.78;2.20;;;;;;;;;;5054471;28;43067;-69
2023/09/05 03:52:49;;;;;;;2.80;2.17;;;;;;;;;;5068252;28;42166;-70
2023/09/05 03:55:17;;;;;;;2.45;2.22;;;;;;;;;;5062176;28;41766;-69
2023/09/05 03:57:47;;;;;;;2.33;2.13;;;;;;;;;;5062986;28;41783;-70
2023/09/05 04:00:15;;;;;;;3.10;2.30;;;;;;;;;;5066630;28;39193;-70
2023/09/05 04:02:43;;;;;;;3.08;2.22;;;;;;;;;;5067800;28;42017;-69
2023/09/05 04:05:11;;;;;;;2.53;2.10;;;;;;;;;;5068145;28;43142;-69
2023/09/05 04:07:39;;;;;;;3.38;1.92;;;;;;;;;;5064422;28;38942;-70
2023/09/05 04:10:10;;;;;;;2.85;2.33;;;;;;;;;;5066756;28;42498;-70
2023/09/05 04:12:38;;;;;;;2.30;2.10;;;;;;;;;;5066406;28;40660;-70
2023/09/05 04:15:08;;;;;;;3.03;2.40;;;;;;;;;;5067887;28;39778;-70
2023/09/05 04:17:36;;;;;;;3.47;2.10;;;;;;;;;;5063070;28;40692;-70
2023/09/05 04:20:07;;;;;;;2.88;2.08;;;;;;;;;;5063421;28;38796;-70
2023/09/05 04:22:36;;;;;;;3.47;2.33;;;;;;;;;;5064538;28;41696;-70
2023/09/05 04:25:05;;;;;;;3.47;2.60;;;;;;;;;;5066750;28;42108;-70
2023/09/05 04:27:33;;;;;;;2.58;2.33;;;;;;;;;;5064886;28;39294;-70
2023/09/05 04:30:02;;;;;;;2.22;2.03;;;;;;;;;;5066459;28;41180;-70
2023/09/05 04:32:31;;;;;;;2.20;2.00;;;;;;;;;;5068060;28;41724;-70
2023/09/05 04:35:00;;;;;;;3.65;2.35;;;;;;;;;;5067097;28;39082;-70
2023/09/05 04:37:28;;;;;;;3.20;2.42;;;;;;;;;;5065650;28;42506;-70
2023/09/05 04:40:01;;;;;;;3.33;2.10;;;;;;;;;;5053942;28;39917;-70
2023/09/05 04:42:29;;;;;;;3.22;2.58;;;;;;;;;;5065818;28;41640;-69
2023/09/05 04:44:57;;;;;;;2.55;2.13;;;;;;;;;;5067761;28;42149;-69
2023/09/05 04:47:25;;;;;;;2.50;2.17;;;;;;;;;;5067553;28;39797;-70
2023/09/05 04:49:55;;;;;;;2.28;2.08;;;;;;;;;;5067334;28;41104;-70
2023/09/05 04:52:23;;;;;;;2.80;2.30;;;;;;;;;;5067873;28;42128;-70
2023/09/05 04:54:52;;;;;;;2.40;2.20;;;;;;;;;;5067632;28;39810;-70
2023/09/05 04:57:19;;;;;;;2.60;2.20;;;;;;;;;;5067423;28;41355;-70
2023/09/05 04:59:48;;;;;;;2.97;2.50;;;;;;;;;;5066584;28;40179;-70
2023/09/05 05:02:16;;;;;;;2.75;2.20;;;;;;;;;;5068242;28;41448;-70
2023/09/05 05:04:44;;;;;;;2.70;2.28;;;;;;;;;;5053466;28;42410;-70
2023/09/05 05:07:13;;;;;;;3.38;2.05;;;;;;;;;;5062148;28;40275;-69
2023/09/05 05:09:43;;;;;;;3.78;2.22;;;;;;;;;;5065580;28;42680;-69
2023/09/05 05:12:11;;;;;;;2.97;2.35;;;;;;;;;;5065168;28;42401;-70
2023/09/05 05:14:39;;;;;;;2.53;2.33;;;;;;;;;;5067363;28;41405;-70
2023/09/05 05:17:07;;;;;;;2.90;2.17;;;;;;;;;;5065411;28;42426;-69
2023/09/05 05:19:36;;;;;;;4.82;2.20;;;;;;;;;;5066796;28;42563;-70
2023/09/05 05:22:05;;;;;;;3.60;2.17;;;;;;;;;;5067701;28;40927;-70
2023/09/05 05:24:35;;;;;;;2.97;2.30;;;;;;;;;;5065631;28;42137;-70
2023/09/05 05:27:03;;;;;;;4.43;2.58;;;;;;;;;;5062095;28;39134;-70
2023/09/05 05:29:32;;;;;;;2.63;2.22;;;;;;;;;;5066108;28;41529;-70
2023/09/05 05:32:00;;;;;;;2.47;2.03;;;;;;;;;;5066141;28;43453;-70
2023/09/05 05:34:29;;;;;;;5.43;3.53;;;;;;;;;;5064531;28;41417;-69
2023/09/05 05:36:57;;;;;;;2.95;2.65;;;;;;;;;;5067586;28;41735;-70
2023/09/05 05:39:26;;;;;;;7.45;2.80;;;;;;;;;;5060057;28;42256;-70
2023/09/05 05:41:55;;;;;;;6.32;3.10;;;;;;;;;;5071532;28;39906;-70
2023/09/05 05:44:23;;;;;;;10.15;3.45;;;;;;;;;;5070278;28;43005;-70
2023/09/05 05:46:55;;;;;;;8.45;3.17;;;;;;;;;;5067178;28;40862;-70
2023/09/05 05:49:23;;;;;;;8.65;2.80;;;;;;;;;;5062735;28;42117;-70
2023/09/05 05:51:52;;;;;;;9.30;2.88;;;;;;;;;;5064987;28;42529;-69
2023/09/05 05:54:20;;;;;;;15.68;2.88;;;;;;;;;;5066077;28;41279;-69
2023/09/05 05:56:47;;;;;;;7.68;2.75;;;;;;;;;;5070203;28;41599;-69
2023/09/05 05:59:17;;;;;;;6.53;3.22;;;;;;;;;;5068769;28;42094;-69
2023/09/05 06:01:45;;;;;;;9.93;3.10;;;;;;;;;;5070304;28;41840;-69
2023/09/05 06:04:15;;;;;;;6.03;3.08;;;;;;;;;;5066861;28;41421;-69
2023/09/05 06:06:45;;;;;;;7.03;3.08;;;;;;;;;;5068421;28;41800;-69
2023/09/05 06:09:13;;;;;;;6.00;3.40;;;;;;;;;;5070542;28;41002;-69
2023/09/05 06:11:41;;;;;;;5.45;3.00;;;;;;;;;;5070901;28;43037;-69
2023/09/05 06:14:09;;;;;;;10.55;2.90;;;;;;;;;;5070021;28;40421;-68
2023/09/05 06:16:38;;;;;;;13.98;3.47;;;;;;;;;;5065662;28;42744;-68
2023/09/05 06:19:08;;;;;;;6.00;3.28;;;;;;;;;;5070347;28;42244;-68
2023/09/05 06:21:36;;;;;;;8.10;3.63;;;;;;;;;;5062004;28;40549;-68
2023/09/05 06:24:04;;;;;;;12.95;3.95;;;;;;;;;;5063523;28;42464;-68
2023/09/05 06:26:32;;;;;;;6.88;3.17;;;;;;;;;;5068963;28;42608;-68
2023/09/05 06:29:00;;;;;;;7.32;3.40;;;;;;;;;;5068245;28;42052;-68
2023/09/05 06:31:30;;;;;;;5.22;3.15;;;;;;;;;;5068633;28;42612;-68
2023/09/05 06:33:59;;;;;;;10.05;3.80;;;;;;;;;;5070100;28;41332;-69
2023/09/05 06:36:27;;;;;;;6.18;3.05;;;;;;;;;;5061693;28;41409;-68
2023/09/05 06:38:55;;;;;;;6.93;3.28;;;;;;;;;;5069139;28;42715;-69
2023/09/05 06:41:23;;;;;;;10.63;3.35;;;;;;;;;;5067838;28;40437;-68
2023/09/05 06:43:52;;;;;;;9.52;3.83;;;;;;;;;;5069138;28;41647;-68
2023/09/05 06:46:20;;;;;;;6.38;3.30;;;;;;;;;;5061153;28;42598;-69
2023/09/05 06:48:48;;;;;;;9.07;3.25;;;;;;;;;;5063894;28;41248;-69
2023/09/05 06:51:17;;;;;;;9.05;3.13;;;;;;;;;;5067580;28;42102;-69
2023/09/05 06:53:45;;;;;;;7.38;3.28;;;;;;;;;;5067991;28;40032;-68
2023/09/05 06:56:13;;;;;;;5.03;3.17;;;;;;;;;;5066719;28;41015;-69
2023/09/05 06:58:41;;;;;;;4.00;3.13;;;;;;;;;;5066650;28;41781;-69
2023/09/05 07:01:09;;;;;;;4.18;3.22;;;;;;;;;;5067635;28;39956;-69
2023/09/05 07:03:37;;;;;;;5.50;3.10;;;;;;;;;;5066375;28;41317;-69
2023/09/05 07:06:05;;;;;;;5.25;3.22;;;;;;;;;;5068062;28;42614;-68
2023/09/05 07:08:36;;;;;;;4.25;3.03;;;;;;;;;;5069220;28;41102;-68
2023/09/05 07:11:04;;;;;;;4.95;3.47;;;;;;;;;;5060023;28;42875;-69
2023/09/05 07:13:32;;;;;;;5.05;3.03;;;;;;;;;;5068443;28;40204;-68
2023/09/05 07:16:00;;;;;;;5.15;3.10;;;;;;;;;;5068762;28;42633;-68
2023/09/05 07:18:28;;;;;;;6.40;3.20;;;;;;;;;;5067601;28;42011;-68
2023/09/05 07:20:57;;;;;;;6.78;2.92;;;;;;;;;;5069469;28;39946;-69
2023/09/05 07:23:25;;;;;;;3.92;2.83;;;;;;;;;;5068811;28;42223;-69
2023/09/05 07:25:55;;;;;;;4.88;2.90;;;;;;;;;;5068411;28;42284;-69
2023/09/05 07:28:23;;;;;;;5.55;2.78;;;;;;;;;;5060013;28;40877;-68
2023/09/05 07:30:52;;;;;;;8.15;3.00;;;;;;;;;;5067679;28;43023;-69
2023/09/05 07:33:20;;;;;;;7.75;3.30;;;;;;;;;;5068315;28;39661;-69
2023/09/05 07:35:48;;;;;;;6.78;2.70;;;;;;;;;;5067510;28;41565;-68
2023/09/05 07:38:17;;;;;;;5.65;3.03;;;;;;;;;;5067038;28;41837;-69
2023/09/05 07:40:45;;;;;;;6.55;2.83;;;;;;;;;;5068309;28;41216;-69
2023/09/05 07:43:14;;;;;;;6.22;2.72;;;;;;;;;;5068119;28;41559;-67
2023/09/05 07:45:42;;;;;;;3.08;2.50;;;;;;;;;;5067097;28;42860;-69
2023/09/05 07:48:10;;;;;;;6.18;2.83;;;;;;;;;;5068404;28;41344;-69
2023/09/05 07:50:38;;;;;;;5.05;2.67;;;;;;;;;;5067146;28;41564;-69
2023/09/05 07:53:06;;;;;;;5.55;2.70;;;;;;;;;;5067962;28;42045;-69
2023/09/05 07:55:34;;;;;;;4.47;2.50;;;;;;;;;;5067604;28;41342;-69
2023/09/05 07:58:02;;;;;;;6.47;2.67;;;;;;;;;;5067922;28;40369;-69
2023/09/05 08:00:32;;;;;;;5.65;2.67;;;;;;;;;;5067177;28;39834;-70
2023/09/05 08:03:03;;;;;;;5.13;2.45;;;;;;;;;;5066559;28;42127;-68
2023/09/05 08:05:31;;;;;;;6.20;2.90;;;;;;;;;;5066829;28;44105;-68
2023/09/05 08:07:59;;;;;;;6.80;2.65;;;;;;;;;;5066673;28;40114;-71
2023/09/05 08:10:27;;;;;;;4.38;2.47;;;;;;;;;;5067068;28;42077;-70
2023/09/05 08:12:56;;;;;;;4.95;2.50;;;;;;;;;;5067680;28;42164;-68
2023/09/05 08:15:24;;;;;;;4.57;2.30;;;;;;;;;;5066798;28;40143;-68
2023/09/05 08:17:53;;;;;;;2.60;2.40;;;;;;;;;;5068341;28;42593;-68
2023/09/05 08:20:21;;;;;;;4.75;3.80;;;;;;;;;;5068133;28;40847;-68
2023/09/05 08:22:49;;;;;;;4.88;2.25;;;;;;;;;;5067313;28;41274;-68
2023/09/05 08:25:18;;;;;;;2.70;2.35;;;;;;;;;;5065877;28;41509;-68
2023/09/05 08:27:46;;;;;;;5.68;2.72;;;;;;;;;;5066683;28;41360;-68
2023/09/05 08:30:15;;;;;;;6.20;2.97;;;;;;;;;;5067748;28;41668;-68
2023/09/05 08:32:43;;;;;;;4.32;2.38;;;;;;;;;;5066648;28;41385;-68
2023/09/05 08:35:13;;;;;;;5.93;2.42;;;;;;;;;;5063390;28;40429;-68
2023/09/05 08:37:41;;;;;;;3.35;2.45;;;;;;;;;;5055829;28;42678;-68
2023/09/05 08:40:09;;;;;;;4.10;2.67;;;;;;;;;;5064742;28;40330;-68
2023/09/05 08:42:37;;;;;;;9.25;3.20;;;;;;;;;;5062120;28;40986;-67
2023/09/05 08:45:06;;;;;;;5.32;2.45;;;;;;;;;;5060835;28;43001;-68
2023/09/05 08:47:34;;;;;;;5.55;2.65;;;;;;;;;;5064244;28;40013;-67
2023/09/05 08:50:04;;;;;;;4.07;2.78;;;;;;;;;;5067496;28;41353;-68
2023/09/05 08:52:33;;;;;;;4.47;3.08;;;;;;;;;;5063265;28;41874;-68
2023/09/05 08:55:02;;;;;;;7.88;3.17;;;;;;;;;;5058948;28;41204;-70
2023/09/05 08:57:30;;;;;;;6.18;2.90;;;;;;;;;;5065761;28;41758;-70
2023/09/05 08:59:58;;;;;;;4.10;2.80;;;;;;;;;;5068329;28;33280;-68
2023/09/05 09:02:26;;;;;;;5.85;2.45;;;;;;;;;;5066514;28;42651;-70
2023/09/05 09:04:55;;;;;;;3.78;2.95;;;;;;;;;;5067440;28;42927;-70
2023/09/05 09:07:24;;;;;;;5.70;2.85;;;;;;;;;;5065596;28;40643;-70
2023/09/05 09:09:53;;;;;;;2.90;2.60;;;;;;;;;;5061968;28;40416;-68
2023/09/05 09:12:25;;;;;;;6.78;2.70;;;;;;;;;;5056666;28;41675;-70
2023/09/05 09:14:53;;;;;;;5.25;2.60;;;;;;;;;;5065189;28;40026;-69
2023/09/05 09:17:23;;;;;;;6.70;2.50;;;;;;;;;;5066345;28;41658;-70
2023/09/05 09:19:52;;;;;;;4.45;2.30;;;;;;;;;;5061558;28;42089;-70
2023/09/05 09:22:22;;;;;;;5.38;2.60;;;;;;;;;;5066011;28;40039;-70
2023/09/05 09:24:52;;;;;;;2.97;2.30;;;;;;;;;;5062980;28;20225;-71
2023/09/05 09:27:22;;;;;;;5.88;2.67;;;;;;;;;;5066896;28;40889;-70
2023/09/05 09:29:53;;;;;;;8.27;2.80;;;;;;;;;;5063334;28;40679;-69
2023/09/05 09:32:22;;;;;;;5.07;2.45;;;;;;;;;;5065412;28;42499;-69
2023/09/05 09:34:50;;;;;;;4.97;2.50;;;;;;;;;;5054349;28;40660;-69
2023/09/05 09:37:24;;;;;;;6.22;2.53;;;;;;;;;;5062228;28;41179;-68
2023/09/05 09:39:57;;;;;;;3.90;2.35;;;;;;;;;;5049365;28;42977;-67
2023/09/05 09:42:26;;;;;;;4.15;2.83;;;;;;;;;;5060832;28;41287;-69
2023/09/05 09:44:54;;;;;;;3.70;2.70;;;;;;;;;;5064456;28;43226;-68
2023/09/05 09:47:24;;;;;;;4.88;2.83;;;;;;;;;;5062681;28;40266;-69
2023/09/05 09:49:52;;;;;;;5.30;2.25;;;;;;;;;;5065453;28;42448;-70
2023/09/05 09:52:21;;;;;;;4.13;2.72;;;;;;;;;;5062465;28;41528;-68
2023/09/05 09:54:50;;;;;;;4.82;2.90;;;;;;;;;;5062770;28;40366;-70
2023/09/05 09:57:19;;;;;;;4.18;2.40;;;;;;;;;;5064697;28;41941;-69
2023/09/05 10:00:15;;;;;;;3.95;2.35;;;;;;;;;;5060596;28;43957;-69
2023/09/05 10:02:44;;;;;;;6.07;2.35;;;;;;;;;;5055784;28;40345;-69
2023/09/05 10:05:12;;;;;;;3.40;2.60;;;;;;;;;;5064141;28;41264;-69
2023/09/05 10:07:40;;;;;;;4.45;2.35;;;;;;;;;;5064480;28;39915;-70
2023/09/05 10:10:09;;;;;;;2.95;2.38;;;;;;;;;;5064334;28;41201;-69
2023/09/05 10:12:37;;;;;;;4.40;2.33;;;;;;;;;;5064673;28;42246;-69
2023/09/05 10:15:08;;;;;;;5.35;2.35;;;;;;;;;;5065012;28;40394;-68
2023/09/05 10:17:36;;;;;;;4.30;2.65;;;;;;;;;;5064383;28;41168;-68
2023/09/05 10:20:05;;;;;;;3.42;2.45;;;;;;;;;;5063678;28;42691;-71
2023/09/05 10:22:34;;;;;;;4.72;2.60;;;;;;;;;;5064278;28;39157;-71
2023/09/05 10:25:02;;;;;;;2.75;2.22;;;;;;;;;;5064384;28;41404;-70
2023/09/05 10:27:30;;;;;;;4.60;2.67;;;;;;;;;;5066539;28;40923;-70
2023/09/05 10:29:59;;;;;;;4.72;2.70;;;;;;;;;;5068955;28;41501;-68
2023/09/05 10:32:28;;;;;;;4.28;2.67;;;;;;;;;;5065342;28;43169;-69
2023/09/05 10:34:58;;;;;;;6.78;2.20;;;;;;;;;;5068065;28;40276;-69
2023/09/05 10:37:39;;;;;;;3.08;2.38;;;;;;;;;;5068303;28;42803;-70
2023/09/05 10:40:08;;;;;;;4.28;2.55;;;;;;;;;;5064193;28;41476;-69
2023/09/05 10:42:36;;;;;;;3.63;2.15;;;;;;;;;;5065441;28;40203;-69
2023/09/05 10:45:16;;;;;;;5.40;2.60;;;;;;;;;;5068325;28;42610;-69
2023/09/05 10:47:47;;;;;;;7.38;2.60;;;;;;;;;;5063177;28;42085;-70
2023/09/05 10:50:19;;;;;;;5.90;2.67;;;;;;;;;;5064004;28;38978;-70
2023/09/05 10:52:49;;;;;;;3.60;2.55;;;;;;;;;;5059224;28;41979;-68
2023/09/05 10:55:39;;;;;;;3.72;2.40;;;;;;;;;;5066616;28;39981;-70
2023/09/05 10:58:23;;;;;;;4.45;2.40;;;;;;;;;;5065180;28;42050;-70
2023/09/05 11:00:50;;;;;;;4.85;2.90;;;;;;;;;;5063125;28;41982;-70
2023/09/05 11:03:20;;;;;;;4.68;2.42;;;;;;;;;;5067244;28;41404;-71
2023/09/05 11:05:48;;;;;;;4.18;2.53;;;;;;;;;;5068523;28;41099;-71
2023/09/05 11:08:20;;;;;;;4.47;2.70;;;;;;;;;;5065162;28;40576;-70
2023/09/05 11:10:50;;;;;;;3.95;2.60;;;;;;;;;;5067720;28;40575;-70
2023/09/05 11:13:18;;;;;;;7.53;2.42;;;;;;;;;;5066175;28;41539;-71
2023/09/05 11:15:46;;;;;;;4.30;2.58;;;;;;;;;;5068622;28;41332;-70
2023/09/05 11:18:14;;;;;;;3.10;2.28;;;;;;;;;;5065984;28;41690;-70
2023/09/05 11:20:44;;;;;;;3.78;2.40;;;;;;;;;;5068170;28;41698;-70
2023/09/05 11:23:12;;;;;;;4.55;2.22;;;;;;;;;;5066127;28;40199;-68
2023/09/05 11:25:42;;;;;;;6.88;2.42;;;;;;;;;;5066672;28;41348;-68
2023/09/05 11:28:10;;;;;;;5.18;2.17;;;;;;;;;;5067694;28;42572;-67
2023/09/05 11:30:38;;;;;;;4.28;2.55;;;;;;;;;;5065833;28;40202;-68
2023/09/05 11:33:09;;;;;;;3.38;2.08;;;;;;;;;;5064999;28;41433;-68
2023/09/05 11:35:38;;;;;;;6.05;2.60;;;;;;;;;;5063621;28;39908;-67
2023/09/05 11:38:07;;;;;;;10.00;2.63;;;;;;;;;;5062140;28;41745;-69
2023/09/05 11:40:35;;;;;;;4.80;2.15;;;;;;;;;;5064645;28;41925;-69
2023/09/05 11:43:04;;;;;;;4.10;2.20;;;;;;;;;;5059446;28;40934;-68
2023/09/05 11:45:32;;;;;;;4.65;2.42;;;;;;;;;;5065205;28;40970;-68
2023/09/05 11:48:00;;;;;;;3.55;2.10;;;;;;;;;;5065655;28;42113;-69
2023/09/05 11:50:28;;;;;;;2.95;1.98;;;;;;;;;;5066536;28;40366;-68
2023/09/05 11:52:56;;;;;;;3.88;2.53;;;;;;;;;;5063328;28;42093;-68
2023/09/05 11:55:25;;;;;;;3.80;2.47;;;;;;;;;;5063778;28;42474;-69
2023/09/05 11:57:54;;;;;;;3.40;2.70;;;;;;;;;;5065468;28;44133;-68
2023/09/05 12:00:23;;;;;;;5.57;2.75;;;;;;;;;;5062878;28;41959;-68
2023/09/05 12:02:51;;;;;;;3.72;2.25;;;;;;;;;;5064609;28;41576;-68
2023/09/05 12:05:20;;;;;;;3.42;2.60;;;;;;;;;;5065664;28;41859;-68
2023/09/05 12:07:51;;;;;;;2.78;2.47;;;;;;;;;;5065511;28;42166;-69
2023/09/05 12:10:19;;;;;;;5.45;2.38;;;;;;;;;;5061311;28;39997;-69
2023/09/05 12:12:54;;;;;;;5.20;2.40;;;;;;;;;;5060674;28;42715;-68
2023/09/05 12:15:29;;;;;;;5.07;2.00;;;;;;;;;;5064323;28;43209;-69
2023/09/05 12:17:57;;;;;;;3.22;1.98;;;;;;;;;;5059277;28;40265;-68
2023/09/05 12:20:25;;;;;;;6.65;2.55;;;;;;;;;;5064122;28;42007;-69
2023/09/05 12:22:53;;;;;;;4.63;2.33;;;;;;;;;;5062430;28;40439;-69
2023/09/05 12:25:24;;;;;;;3.47;1.92;;;;;;;;;;5063623;28;41336;-68
2023/09/05 12:27:55;;;;;;;7.07;2.30;;;;;;;;;;5060193;28;42120;-70
2023/09/05 12:30:27;;;;;;;6.47;2.40;;;;;;;;;;5062167;28;40814;-67
2023/09/05 12:32:56;;;;;;;7.97;2.38;;;;;;;;;;5065129;28;42158;-68
2023/09/05 12:35:25;;;;;;;5.38;2.10;;;;;;;;;;5064862;28;42214;-69
2023/09/05 12:37:53;;;;;;;6.75;2.60;;;;;;;;;;5060965;28;40549;-69
2023/09/05 12:40:22;;;;;;;4.30;1.90;;;;;;;;;;5065795;28;41989;-69
2023/09/05 12:42:50;;;;;;;5.47;2.03;;;;;;;;;;5064981;28;40088;-69
2023/09/05 12:45:20;;;;;;;3.97;2.03;;;;;;;;;;5065118;28;42557;-69
2023/09/05 12:47:51;;;;;;;4.57;2.28;;;;;;;;;;5064972;28;43341;-69
2023/09/05 12:50:25;;;;;;;4.07;2.35;;;;;;;;;;5064309;28;41326;-69
2023/09/05 12:52:54;;;;;;;5.63;2.15;;;;;;;;;;5056985;28;41895;-69
2023/09/05 12:55:24;;;;;;;7.18;2.35;;;;;;;;;;5061140;28;42226;-69
2023/09/05 12:57:53;;;;;;;5.75;1.95;;;;;;;;;;5066667;28;41683;-70
2023/09/05 13:00:23;;;;;;;5.15;1.75;;;;;;;;;;5062190;28;43442;-71
2023/09/05 13:02:51;;;;;;;3.10;2.00;;;;;;;;;;5063642;28;41533;-73
2023/09/05 13:05:19;;;;;;;6.00;1.90;;;;;;;;;;5064581;28;42512;-72
2023/09/05 13:07:47;;;;;;;9.90;2.00;;;;;;;;;;5061346;28;41720;-73
2023/09/05 13:10:15;;;;;;;7.28;2.17;;;;;;;;;;5062959;28;40200;-74
2023/09/05 13:12:46;;;;;;;3.92;2.08;;;;;;;;;;5062824;28;40992;-73
2023/09/05 13:15:14;;;;;;;3.20;1.73;;;;;;;;;;5062105;28;43272;-74
2023/09/05 13:17:45;;;;;;;11.40;2.40;;;;;;;;;;5063742;28;40773;-72
2023/09/05 13:20:14;;;;;;;9.70;2.60;;;;;;;;;;5066508;28;41284;-72
2023/09/05 13:22:48;;;;;;;15.88;3.53;;;;;;;;;;5064223;28;43460;-72
2023/09/05 13:25:16;;;;;;;18.58;3.13;;;;;;;;;;5057512;28;42149;-72
2023/09/05 13:27:44;;;;;;;6.00;2.90;;;;;;;;;;5063734;28;41674;-73
2023/09/05 13:30:13;;;;;;;10.65;2.75;;;;;;;;;;5063434;28;40319;-72
2023/09/05 13:32:41;;;;;;;7.68;2.53;;;;;;;;;;5062002;28;40763;-71
2023/09/05 13:35:10;;;;;;;8.45;2.35;;;;;;;;;;5066937;28;41952;-72
2023/09/05 13:37:38;;;;;;;9.57;3.03;;;;;;;;;;5058426;28;41479;-72
2023/09/05 13:40:07;;;;;;;7.20;2.40;;;;;;;;;;5063417;28;42021;-72
2023/09/05 13:42:35;;;;;;;18.35;2.40;;;;;;;;;;5065972;28;42301;-71
2023/09/05 13:45:04;;;;;;;3.70;2.05;;;;;;;;;;5063782;28;41049;-72
2023/09/05 13:47:33;;;;;;;9.77;2.55;;;;;;;;;;5060637;28;43968;-70
2023/09/05 13:50:01;;;;;;;3.65;2.78;;;;;;;;;;5063282;28;40732;-71
2023/09/05 13:52:30;;;;;;;2.10;1.90;;;;;;;;;;5059996;28;42322;-71
2023/09/05 13:54:58;;;;;;;3.63;1.92;;;;;;;;;;5061044;28;43216;-71
2023/09/05 13:57:26;;;;;;;2.55;2.08;;;;;;;;;;5058519;28;40237;-71
2023/09/05 13:59:54;;;;;;;3.20;2.17;;;;;;;;;;5065339;28;41355;-70
2023/09/05 14:02:22;;;;;;;3.28;2.28;;;;;;;;;;5065918;28;42939;-70
2023/09/05 14:04:52;;;;;;;3.00;2.15;;;;;;;;;;5063294;28;40107;-70
2023/09/05 14:07:20;;;;;;;8.20;2.38;;;;;;;;;;5062421;28;42705;-70
2023/09/05 14:09:49;;;;;;;4.32;2.40;;;;;;;;;;5060687;28;41518;-70
2023/09/05 14:12:18;;;;;;;4.40;2.10;;;;;;;;;;5068588;28;42714;-70
2023/09/05 14:14:46;;;;;;;6.55;2.30;;;;;;;;;;5061789;28;42351;-70
2023/09/05 14:17:14;;;;;;;5.05;2.42;;;;;;;;;;5061924;28;40051;-70
2023/09/05 14:19:42;;;;;;;5.95;2.08;;;;;;;;;;5067483;28;42876;-70
2023/09/05 14:22:10;;;;;;;3.55;2.00;;;;;;;;;;5070188;28;42184;-69
2023/09/05 14:24:38;;;;;;;5.72;2.38;;;;;;;;;;5062499;28;40712;-69
2023/09/05 14:27:08;;;;;;;6.85;2.58;;;;;;;;;;5069623;28;42222;-70
2023/09/05 14:29:36;;;;;;;3.30;2.25;;;;;;;;;;5069191;28;42266;-69
2023/09/05 14:32:04;;;;;;;6.65;2.00;;;;;;;;;;5069357;28;41835;-70
2023/09/05 14:34:32;;;;;;;2.25;2.05;;;;;;;;;;5068463;28;42363;-70
2023/09/05 14:37:00;;;;;;;4.03;2.30;;;;;;;;;;5070156;28;40113;-70
2023/09/05 14:39:28;;;;;;;4.03;2.20;;;;;;;;;;5069035;28;41733;-70
2023/09/05 14:41:56;;;;;;;4.03;2.40;;;;;;;;;;5068687;28;43368;-70
2023/09/05 14:44:26;;;;;;;3.80;2.10;;;;;;;;;;5069559;28;40655;-70
2023/09/05 14:46:54;;;;;;;3.60;2.28;;;;;;;;;;5069929;28;41539;-70
2023/09/05 14:49:22;;;;;;;3.15;2.35;;;;;;;;;;5062698;28;43089;-70
2023/09/05 14:51:50;;;;;;;3.78;2.10;;;;;;;;;;5062460;28;41406;-70
2023/09/05 14:54:18;;;;;;;3.53;2.13;;;;;;;;;;5068721;28;42003;-69